Terminal Aerodrome Forecast
Issued by NWS Twin Cities, MN

Home | Current Version | Previous Version | Graphics & Text | Print | Product List | Glossary On
Versions: 1 2 3 4 5 6 7 8 9 10 11 12 13 14 15 16 17 18 19 20 21 22
000
FTUS43 KMPX 191100
TAFSTC
TAF
KSTC 191121Z 1912/2012 13006KT 5SM BR SCT007 OVC020
      TEMPO 1912/1914 2SM -SN BR OVC015
     FM191400 15006KT 5SM BR SCT006 OVC012
     FM191900 15006KT P6SM OVC010
     FM200300 16005KT 4SM BR OVC007=

USA.gov is the U.S. government's official web portal to all federal, state and local government web resources and services.